Time;durP1;ratioP1;P1;durP2;ratioP2;P2;SDS_P1;SDS_P2;PMS_P1;PMS_P2;Temp;Humidity;BMP_temperature;BMP_pressure;BME280_temperature;BME280_humidity;BME280_pressure;Samples;Min_cycle;Max_cycle;Signal;HPM_P1;HPM_P2
2022/03/21 00:01:57;;;;;;;;;;;;;;;;;;5115624;28;19974;-78
2022/03/21 00:04:23;;;;;;;;;;;;;;;;;;5115547;28;20376;-78
2022/03/21 00:06:48;;;;;;;;;;;;;;;;;;5115539;28;20404;-78
2022/03/21 00:09:14;;;;;;;;;;;;;;;;;;5115556;28;19920;-77
2022/03/21 00:11:39;;;;;;;;;;;;;;;;;;5114672;28;20002;-78
2022/03/21 00:14:05;;;;;;;;;;;;;;;;;;5115345;28;19916;-78
2022/03/21 00:16:30;;;;;;;;;;;;;;;;;;5115460;28;19923;-78
2022/03/21 00:18:56;;;;;;;;;;;;;;;;;;5115363;28;20010;-78
2022/03/21 00:21:21;;;;;;;;;;;;;;;;;;5115282;28;19926;-78
2022/03/21 00:23:47;;;;;;;;;;;;;;;;;;5115261;28;19963;-78
2022/03/21 00:26:13;;;;;;;;;;;;;;;;;;5115425;28;19920;-78
2022/03/21 00:28:38;;;;;;;;;;;;;;;;;;5115176;28;19916;-78
2022/03/21 00:31:04;;;;;;;;;;;;;;;;;;5115048;28;19920;-78
2022/03/21 00:33:30;;;;;;;;;;;;;;;;;;5115102;28;19968;-78
2022/03/21 00:35:58;;;;;;;;;;;;;;;;;;5115032;28;19920;-78
2022/03/21 00:38:24;;;;;;;;;;;;;;;;;;5115042;28;19916;-78
2022/03/21 00:40:49;;;;;;;;;;;;;;;;;;5114811;28;19926;-78
2022/03/21 00:43:17;;;;;;;;;;;;;;;;;;5113637;28;20379;-78
2022/03/21 00:45:42;;;;;;;;;;;;;;;;;;5114703;28;19927;-78
2022/03/21 00:48:08;;;;;;;;;;;;;;;;;;5114809;28;20283;-78
2022/03/21 00:50:34;;;;;;;;;;;;;;;;;;5114523;28;19923;-78
2022/03/21 00:52:59;;;;;;;;;;;;;;;;;;5112903;28;19916;-77
2022/03/21 00:55:31;;;;;;;;;;;;;;;;;;5114577;28;19922;-77
2022/03/21 00:57:58;;;;;;;;;;;;;;;;;;5114726;28;20335;-76
2022/03/21 01:00:26;;;;;;;;;;;;;;;;;;5114434;28;19916;-77
2022/03/21 01:02:52;;;;;;;;;;;;;;;;;;5114388;28;19922;-77
2022/03/21 01:05:17;;;;;;;;;;;;;;;;;;5114438;28;20358;-76
2022/03/21 01:07:43;;;;;;;;;;;;;;;;;;5114445;28;19920;-76
2022/03/21 01:10:09;;;;;;;;;;;;;;;;;;5114279;28;20007;-76
2022/03/21 01:12:35;;;;;;;;;;;;;;;;;;5114364;28;19955;-77
2022/03/21 01:15:01;;;;;;;;;;;;;;;;;;5114234;28;19974;-77
2022/03/21 01:17:26;;;;;;;;;;;;;;;;;;5114272;28;19922;-77
2022/03/21 01:19:52;;;;;;;;;;;;;;;;;;5114140;28;19933;-77
2022/03/21 01:22:17;;;;;;;;;;;;;;;;;;5114092;28;20363;-77
2022/03/21 01:24:43;;;;;;;;;;;;;;;;;;5114069;28;19959;-76
2022/03/21 01:27:08;;;;;;;;;;;;;;;;;;5113952;28;20014;-77
2022/03/21 01:29:34;;;;;;;;;;;;;;;;;;5113411;28;19926;-77
2022/03/21 01:32:00;;;;;;;;;;;;;;;;;;5113717;28;19926;-77
2022/03/21 01:34:25;;;;;;;;;;;;;;;;;;5113618;28;19955;-77
2022/03/21 01:36:51;;;;;;;;;;;;;;;;;;5112574;28;19915;-77
2022/03/21 01:39:16;;;;;;;;;;;;;;;;;;5112457;28;20321;-77
2022/03/21 01:41:42;;;;;;;;;;;;;;;;;;5113693;28;20376;-77
2022/03/21 01:44:08;;;;;;;;;;;;;;;;;;5113742;28;19916;-77
2022/03/21 01:46:35;;;;;;;;;;;;;;;;;;5113391;28;20374;-77
2022/03/21 01:49:01;;;;;;;;;;;;;;;;;;5113765;28;20409;-77
2022/03/21 01:51:27;;;;;;;;;;;;;;;;;;5113534;28;19958;-76
2022/03/21 01:56:38;;;;;;;;;;;;;;;;;;5113743;28;19922;-77
2022/03/21 01:59:04;;;;;;;;;;;;;;;;;;5113452;28;19939;-77
2022/03/21 02:01:29;;;;;;;;;;;;;;;;;;5113311;28;20359;-77
2022/03/21 02:03:55;;;;;;;;;;;;;;;;;;5113385;28;19920;-76
2022/03/21 02:06:21;;;;;;;;;;;;;;;;;;5113367;28;19915;-77
2022/03/21 02:08:47;;;;;;;;;;;;;;;;;;5113310;28;20003;-76
2022/03/21 02:11:12;;;;;;;;;;;;;;;;;;5112116;28;20007;-77
2022/03/21 02:13:38;;;;;;;;;;;;;;;;;;5113443;28;19922;-76
2022/03/21 02:16:04;;;;;;;;;;;;;;;;;;5113258;28;20367;-77
2022/03/21 02:18:30;;;;;;;;;;;;;;;;;;5095147;28;20335;-77
2022/03/21 02:20:56;;;;;;;;;;;;;;;;;;5113281;28;19912;-76
2022/03/21 02:23:35;;;;;;;;;;;;;;;;;;5113369;28;19942;-78
2022/03/21 02:26:01;;;;;;;;;;;;;;;;;;5092788;28;19916;-77
2022/03/21 02:28:27;;;;;;;;;;;;;;;;;;5092928;28;19916;-77
2022/03/21 02:30:53;;;;;;;;;;;;;;;;;;5092824;28;19923;-78
2022/03/21 02:33:19;;;;;;;;;;;;;;;;;;5093287;28;19920;-76
2022/03/21 02:35:45;;;;;;;;;;;;;;;;;;5096747;28;19920;-76
2022/03/21 02:38:12;;;;;;;;;;;;;;;;;;5096840;28;19916;-77
2022/03/21 02:40:37;;;;;;;;;;;;;;;;;;5096244;28;19920;-77
2022/03/21 02:43:03;;;;;;;;;;;;;;;;;;5096698;28;19916;-77
2022/03/21 02:45:28;;;;;;;;;;;;;;;;;;5096949;28;19948;-76
2022/03/21 02:47:54;;;;;;;;;;;;;;;;;;5096773;28;19924;-76
2022/03/21 02:50:30;;;;;;;;;;;;;;;;;;5096566;28;19921;-77
2022/03/21 02:52:56;;;;;;;;;;;;;;;;;;5096465;28;19920;-77
2022/03/21 02:55:21;;;;;;;;;;;;;;;;;;5114459;28;20371;-77
2022/03/21 02:57:47;;;;;;;;;;;;;;;;;;5116918;28;20421;-76
2022/03/21 03:00:12;;;;;;;;;;;;;;;;;;5117179;28;19932;-77
2022/03/21 03:02:38;;;;;;;;;;;;;;;;;;5116794;28;20434;-76
2022/03/21 03:05:04;;;;;;;;;;;;;;;;;;5116780;28;19916;-77
2022/03/21 03:07:29;;;;;;;;;;;;;;;;;;5116865;28;19977;-77
2022/03/21 03:09:55;;;;;;;;;;;;;;;;;;5116628;28;19915;-76
2022/03/21 03:12:21;;;;;;;;;;;;;;;;;;5116603;28;20653;-77
2022/03/21 03:14:46;;;;;;;;;;;;;;;;;;5116646;28;19919;-76
2022/03/21 03:17:11;;;;;;;;;;;;;;;;;;5115413;28;20102;-76
2022/03/21 03:19:37;;;;;;;;;;;;;;;;;;5149601;27;20390;-76
2022/03/21 03:22:03;;;;;;;;;;;;;;;;;;5115186;28;19919;-77
2022/03/21 03:24:28;;;;;;;;;;;;;;;;;;5116454;28;20364;-76
2022/03/21 03:26:54;;;;;;;;;;;;;;;;;;5116549;28;19919;-76
2022/03/21 03:29:19;;;;;;;;;;;;;;;;;;5116456;28;19915;-77
2022/03/21 03:31:45;;;;;;;;;;;;;;;;;;5116602;28;19912;-76
2022/03/21 03:34:11;;;;;;;;;;;;;;;;;;5116166;28;20264;-77
2022/03/21 03:36:38;;;;;;;;;;;;;;;;;;5114814;28;19915;-76
2022/03/21 03:39:04;;;;;;;;;;;;;;;;;;5116143;28;20010;-77
2022/03/21 03:41:29;;;;;;;;;;;;;;;;;;5114717;28;20006;-77
2022/03/21 03:43:56;;;;;;;;;;;;;;;;;;5116077;28;19916;-77
2022/03/21 03:46:21;;;;;;;;;;;;;;;;;;5114636;28;20431;-77
2022/03/21 03:48:47;;;;;;;;;;;;;;;;;;5116286;28;19963;-76
2022/03/21 03:51:13;;;;;;;;;;;;;;;;;;5115803;28;19920;-76
2022/03/21 03:53:39;;;;;;;;;;;;;;;;;;5115545;28;19966;-75
2022/03/21 03:56:06;;;;;;;;;;;;;;;;;;5115955;28;19945;-76
2022/03/21 03:58:32;;;;;;;;;;;;;;;;;;5115814;27;20010;-76
2022/03/21 04:00:57;;;;;;;;;;;;;;;;;;5115749;28;19977;-77
2022/03/21 04:06:07;;;;;;;;;;;;;;;;;;5115621;28;20025;-76
2022/03/21 04:08:32;;;;;;;;;;;;;;;;;;5115699;28;19915;-76
2022/03/21 04:10:58;;;;;;;;;;;;;;;;;;5115774;28;19923;-76
2022/03/21 04:13:23;;;;;;;;;;;;;;;;;;5115574;28;19960;-76
2022/03/21 04:15:49;;;;;;;;;;;;;;;;;;5148633;27;19926;-77
2022/03/21 04:18:14;;;;;;;;;;;;;;;;;;5115273;28;20002;-77
2022/03/21 04:20:40;;;;;;;;;;;;;;;;;;5115262;28;19955;-78
2022/03/21 04:23:06;;;;;;;;;;;;;;;;;;5115504;28;20018;-77
2022/03/21 04:25:32;;;;;;;;;;;;;;;;;;5115122;28;19922;-76
2022/03/21 04:27:57;;;;;;;;;;;;;;;;;;5115237;28;19920;-76
2022/03/21 04:30:23;;;;;;;;;;;;;;;;;;5115069;28;19915;-77
2022/03/21 04:32:49;;;;;;;;;;;;;;;;;;5114939;28;20358;-76
2022/03/21 04:35:14;;;;;;;;;;;;;;;;;;5114857;28;19960;-76
2022/03/21 04:37:40;;;;;;;;;;;;;;;;;;5115118;28;19916;-77
2022/03/21 04:40:07;;;;;;;;;;;;;;;;;;5114655;28;19926;-77
2022/03/21 04:42:34;;;;;;;;;;;;;;;;;;5115300;28;19924;-76
2022/03/21 04:44:59;;;;;;;;;;;;;;;;;;5114846;28;19912;-77
2022/03/21 04:47:24;;;;;;;;;;;;;;;;;;5114776;28;19969;-77
2022/03/21 04:49:50;;;;;;;;;;;;;;;;;;5114953;28;19969;-77
2022/03/21 04:52:15;;;;;;;;;;;;;;;;;;5114841;28;20320;-77
2022/03/21 04:54:41;;;;;;;;;;;;;;;;;;5114621;28;20422;-76
2022/03/21 04:57:08;;;;;;;;;;;;;;;;;;5114301;28;20382;-77
2022/03/21 04:59:34;;;;;;;;;;;;;;;;;;5114635;28;19927;-77
2022/03/21 05:01:59;;;;;;;;;;;;;;;;;;5114348;28;19915;-77
2022/03/21 05:04:26;;;;;;;;;;;;;;;;;;5114389;27;20376;-77
2022/03/21 05:06:52;;;;;;;;;;;;;;;;;;5114479;28;19954;-76
2022/03/21 05:09:17;;;;;;;;;;;;;;;;;;5114292;28;19915;-77
2022/03/21 05:11:43;;;;;;;;;;;;;;;;;;5114190;28;19930;-76
2022/03/21 05:14:08;;;;;;;;;;;;;;;;;;5114155;28;19984;-77
2022/03/21 05:16:34;;;;;;;;;;;;;;;;;;5114193;28;20010;-76
2022/03/21 05:18:59;;;;;;;;;;;;;;;;;;5114305;28;19947;-77
2022/03/21 05:21:25;;;;;;;;;;;;;;;;;;5114130;28;19919;-77
2022/03/21 05:32:02;;;;;;;;;;;;;;;;;;5114438;28;19922;-76
2022/03/21 05:37:12;;;;;;;;;;;;;;;;;;5113834;28;19927;-77
2022/03/21 05:40:31;;;;;;;;;;;;;;;;;;5113861;28;20329;-76
2022/03/21 05:42:26;;;;;;;;;;;;;;;;;;5113708;28;20006;-77
2022/03/21 05:44:51;;;;;;;;;;;;;;;;;;5113764;28;20332;-76
2022/03/21 05:47:19;;;;;;;;;;;;;;;;;;5112854;28;20230;-75
2022/03/21 05:49:44;;;;;;;;;;;;;;;;;;5113444;28;19999;-77
2022/03/21 05:52:10;;;;;;;;;;;;;;;;;;5107103;28;20292;-79
2022/03/21 05:54:36;;;;;;;;;;;;;;;;;;5108332;28;19999;-78
2022/03/21 05:57:01;;;;;;;;;;;;;;;;;;5113491;28;20352;-79
2022/03/21 06:02:11;;;;;;;;;;;;;;;;;;5113690;28;19969;-78
2022/03/21 06:04:36;;;;;;;;;;;;;;;;;;5112009;28;19912;-78
2022/03/21 06:07:02;;;;;;;;;;;;;;;;;;5113512;28;19920;-77
2022/03/21 06:09:27;;;;;;;;;;;;;;;;;;5112592;28;19976;-77
2022/03/21 06:11:53;;;;;;;;;;;;;;;;;;5112856;28;19931;-77
2022/03/21 06:14:18;;;;;;;;;;;;;;;;;;5113187;28;19927;-77
2022/03/21 06:16:44;;;;;;;;;;;;;;;;;;5113751;28;19920;-77
2022/03/21 06:19:09;;;;;;;;;;;;;;;;;;5113398;28;20024;-78
2022/03/21 06:21:35;;;;;;;;;;;;;;;;;;5112403;28;20394;-78
2022/03/21 06:24:00;;;;;;;;;;;;;;;;;;5113074;28;20004;-77
2022/03/21 06:26:26;;;;;;;;;;;;;;;;;;5111821;28;19920;-76
2022/03/21 06:28:52;;;;;;;;;;;;;;;;;;5108935;28;20367;-77
2022/03/21 06:31:17;;;;;;;;;;;;;;;;;;5107507;28;19924;-78
2022/03/21 06:33:43;;;;;;;;;;;;;;;;;;5113183;28;19938;-78
2022/03/21 06:36:08;;;;;;;;;;;;;;;;;;5113205;28;19916;-77
2022/03/21 06:38:34;;;;;;;;;;;;;;;;;;5112012;28;19922;-75
2022/03/21 06:41:00;;;;;;;;;;;;;;;;;;5105234;28;20015;-77
2022/03/21 06:43:27;;;;;;;;;;;;;;;;;;5094811;28;19963;-77
2022/03/21 06:45:54;;;;;;;;;;;;;;;;;;5092697;28;19927;-77
2022/03/21 06:48:21;;;;;;;;;;;;;;;;;;5092752;28;19957;-77
2022/03/21 06:50:46;;;;;;;;;;;;;;;;;;5099000;28;20273;-77
2022/03/21 06:53:13;;;;;;;;;;;;;;;;;;5102898;28;19923;-77
2022/03/21 06:55:38;;;;;;;;;;;;;;;;;;5111092;28;19923;-77
2022/03/21 06:58:03;;;;;;;;;;;;;;;;;;5093112;28;19916;-78
2022/03/21 07:00:29;;;;;;;;;;;;;;;;;;5092523;28;20287;-77
2022/03/21 07:02:55;;;;;;;;;;;;;;;;;;5102826;28;19920;-76
2022/03/21 07:05:21;;;;;;;;;;;;;;;;;;5101855;28;19916;-77
2022/03/21 07:07:47;;;;;;;;;;;;;;;;;;5107688;28;20392;-77
2022/03/21 07:10:13;;;;;;;;;;;;;;;;;;5110233;28;19919;-77
2022/03/21 07:12:39;;;;;;;;;;;;;;;;;;5102258;28;19915;-78
2022/03/21 07:15:05;;;;;;;;;;;;;;;;;;5108670;28;20402;-77
2022/03/21 07:17:30;;;;;;;;;;;;;;;;;;5096042;28;19922;-78
2022/03/21 07:19:56;;;;;;;;;;;;;;;;;;5108676;28;19920;-78
2022/03/21 07:22:21;;;;;;;;;;;;;;;;;;5101967;28;19947;-77
2022/03/21 07:24:47;;;;;;;;;;;;;;;;;;5115402;28;19995;-77
2022/03/21 07:27:12;;;;;;;;;;;;;;;;;;5108357;28;19926;-77
2022/03/21 07:29:38;;;;;;;;;;;;;;;;;;5115614;28;19993;-77
2022/03/21 07:32:03;;;;;;;;;;;;;;;;;;5111658;28;19943;-77
2022/03/21 07:34:29;;;;;;;;;;;;;;;;;;5096038;28;20027;-78
2022/03/21 07:36:54;;;;;;;;;;;;;;;;;;5100291;28;20382;-78
2022/03/21 07:39:20;;;;;;;;;;;;;;;;;;5103925;28;19916;-77
2022/03/21 07:41:46;;;;;;;;;;;;;;;;;;5110828;28;19924;-77
2022/03/21 07:47:17;;;;;;;;;;;;;;;;;;5101577;28;21609;-78
2022/03/21 07:49:41;;;;;;;;;;;;;;;;;;5098355;28;19958;-76
2022/03/21 07:52:07;;;;;;;;;;;;;;;;;;5101789;28;19920;-77
2022/03/21 07:54:33;;;;;;;;;;;;;;;;;;5100059;28;19931;-76
2022/03/21 07:56:58;;;;;;;;;;;;;;;;;;5107993;28;20006;-77
2022/03/21 07:59:25;;;;;;;;;;;;;;;;;;5108855;28;19923;-77
2022/03/21 08:01:50;;;;;;;;;;;;;;;;;;5113527;28;19916;-80
2022/03/21 08:04:17;;;;;;;;;;;;;;;;;;5099976;28;19920;-77
2022/03/21 08:06:43;;;;;;;;;;;;;;;;;;5101974;28;20014;-76
2022/03/21 08:09:09;;;;;;;;;;;;;;;;;;5107975;28;20388;-77
2022/03/21 08:11:35;;;;;;;;;;;;;;;;;;5096655;28;19912;-77
2022/03/21 08:14:00;;;;;;;;;;;;;;;;;;5095141;28;19959;-78
2022/03/21 08:16:26;;;;;;;;;;;;;;;;;;5095354;28;19928;-78
2022/03/21 08:18:51;;;;;;;;;;;;;;;;;;5104916;28;20010;-77
2022/03/21 08:21:17;;;;;;;;;;;;;;;;;;5102416;28;20010;-78
2022/03/21 08:23:42;;;;;;;;;;;;;;;;;;5103359;28;19928;-78
2022/03/21 08:26:10;;;;;;;;;;;;;;;;;;5100808;27;19965;-77
2022/03/21 08:28:35;;;;;;;;;;;;;;;;;;5101978;28;19924;-77
2022/03/21 08:31:01;;;;;;;;;;;;;;;;;;5101667;28;20264;-78
2022/03/21 08:33:26;;;;;;;;;;;;;;;;;;5094880;28;19923;-78
2022/03/21 08:35:52;;;;;;;;;;;;;;;;;;5101493;28;20236;-77
2022/03/21 08:38:17;;;;;;;;;;;;;;;;;;5103595;28;19919;-77
2022/03/21 08:40:42;;;;;;;;;;;;;;;;;;5104940;28;19927;-77
2022/03/21 08:43:08;;;;;;;;;;;;;;;;;;5102023;28;19924;-77
2022/03/21 08:45:34;;;;;;;;;;;;;;;;;;5104336;28;20004;-77
2022/03/21 08:48:00;;;;;;;;;;;;;;;;;;5097265;28;19927;-76
2022/03/21 08:50:26;;;;;;;;;;;;;;;;;;5100968;28;20389;-77
2022/03/21 08:52:52;;;;;;;;;;;;;;;;;;5100706;28;19920;-77
2022/03/21 08:55:17;;;;;;;;;;;;;;;;;;5100508;28;19926;-77
2022/03/21 08:57:43;;;;;;;;;;;;;;;;;;5102965;28;20306;-77
2022/03/21 09:00:10;;;;;;;;;;;;;;;;;;5103399;27;20505;-77
2022/03/21 09:02:36;;;;;;;;;;;;;;;;;;5098995;28;19937;-78
2022/03/21 09:05:04;;;;;;;;;;;;;;;;;;5099873;27;19932;-77
2022/03/21 09:07:29;;;;;;;;;;;;;;;;;;5096140;28;19927;-77
2022/03/21 09:09:55;;;;;;;;;;;;;;;;;;5096554;28;19924;-78
2022/03/21 09:12:20;;;;;;;;;;;;;;;;;;5094641;28;20003;-78
2022/03/21 09:14:46;;;;;;;;;;;;;;;;;;5096460;28;19990;-77
2022/03/21 09:17:13;;;;;;;;;;;;;;;;;;5098766;28;19919;-78
2022/03/21 09:19:39;;;;;;;;;;;;;;;;;;5097306;28;19930;-78
2022/03/21 09:22:04;;;;;;;;;;;;;;;;;;5097801;28;20375;-79
2022/03/21 09:24:30;;;;;;;;;;;;;;;;;;5102128;28;19926;-78
2022/03/21 09:26:55;;;;;;;;;;;;;;;;;;5100831;28;19919;-79
2022/03/21 09:29:21;;;;;;;;;;;;;;;;;;5099124;28;19926;-78
2022/03/21 09:31:48;;;;;;;;;;;;;;;;;;5093821;28;19955;-78
2022/03/21 09:34:13;;;;;;;;;;;;;;;;;;5093573;28;19927;-78
2022/03/21 09:36:39;;;;;;;;;;;;;;;;;;5093640;28;19916;-78
2022/03/21 09:39:05;;;;;;;;;;;;;;;;;;5093619;28;19957;-78
2022/03/21 09:41:31;;;;;;;;;;;;;;;;;;5093414;28;20018;-78
2022/03/21 09:43:57;;;;;;;;;;;;;;;;;;5093551;28;20077;-78
2022/03/21 09:46:23;;;;;;;;;;;;;;;;;;5093542;28;20014;-79
2022/03/21 09:48:50;;;;;;;;;;;;;;;;;;5093841;28;19927;-79
2022/03/21 09:51:23;;;;;;;;;;;;;;;;;;5093413;28;20374;-77
2022/03/21 09:53:49;;;;;;;;;;;;;;;;;;5093372;28;19927;-78
2022/03/21 09:56:15;;;;;;;;;;;;;;;;;;5109059;28;19978;-78
2022/03/21 09:58:41;;;;;;;;;;;;;;;;;;5113769;28;19916;-77
2022/03/21 10:01:06;;;;;;;;;;;;;;;;;;5113648;28;19922;-76
2022/03/21 10:03:34;;;;;;;;;;;;;;;;;;5113555;28;19923;-78
2022/03/21 10:06:00;;;;;;;;;;;;;;;;;;5113630;28;19919;-76
2022/03/21 10:08:30;;;;;;;;;;;;;;;;;;5113650;28;20383;-77
2022/03/21 10:10:55;;;;;;;;;;;;;;;;;;5110233;28;19919;-79
2022/03/21 10:13:21;;;;;;;;;;;;;;;;;;5100846;28;19928;-78
2022/03/21 10:15:48;;;;;;;;;;;;;;;;;;5101077;28;19927;-77
2022/03/21 10:18:13;;;;;;;;;;;;;;;;;;5102329;28;19931;-77
2022/03/21 10:20:39;;;;;;;;;;;;;;;;;;5102110;28;19920;-77
2022/03/21 10:23:19;;;;;;;;;;;;;;;;;;5101726;28;20382;-77
2022/03/21 10:25:44;;;;;;;;;;;;;;;;;;5110223;28;20030;-77
2022/03/21 10:28:11;;;;;;;;;;;;;;;;;;5099752;28;20010;-77
2022/03/21 10:30:43;;;;;;;;;;;;;;;;;;5098504;28;19931;-76
2022/03/21 10:33:09;;;;;;;;;;;;;;;;;;5098698;28;20267;-75
2022/03/21 10:35:43;;;;;;;;;;;;;;;;;;5099693;28;19920;-76
2022/03/21 10:38:09;;;;;;;;;;;;;;;;;;5097355;28;19931;-75
2022/03/21 10:40:36;;;;;;;;;;;;;;;;;;5098951;28;19926;-76
2022/03/21 10:43:04;;;;;;;;;;;;;;;;;;5099133;28;20044;-75
2022/03/21 10:45:41;;;;;;;;;;;;;;;;;;5098192;28;19923;-77
2022/03/21 10:48:12;;;;;;;;;;;;;;;;;;5097985;28;19927;-76
2022/03/21 10:50:40;;;;;;;;;;;;;;;;;;5097633;28;19949;-77
2022/03/21 10:53:06;;;;;;;;;;;;;;;;;;5095326;28;19928;-78
2022/03/21 10:55:31;;;;;;;;;;;;;;;;;;5105377;28;19920;-78
2022/03/21 10:57:57;;;;;;;;;;;;;;;;;;5102516;28;20522;-78
2022/03/21 11:00:23;;;;;;;;;;;;;;;;;;5098566;28;19981;-79
2022/03/21 11:02:55;;;;;;;;;;;;;;;;;;5102133;28;19927;-77
2022/03/21 11:05:21;;;;;;;;;;;;;;;;;;5103451;28;19981;-77
2022/03/21 11:07:47;;;;;;;;;;;;;;;;;;5106103;28;19945;-77
2022/03/21 11:10:12;;;;;;;;;;;;;;;;;;5100710;28;20287;-77
2022/03/21 11:12:39;;;;;;;;;;;;;;;;;;5140579;27;19923;-76
2022/03/21 11:15:05;;;;;;;;;;;;;;;;;;5096308;28;19927;-76
2022/03/21 11:17:32;;;;;;;;;;;;;;;;;;5096366;28;19916;-76
2022/03/21 11:19:58;;;;;;;;;;;;;;;;;;5095000;28;20061;-75
2022/03/21 11:22:23;;;;;;;;;;;;;;;;;;5096249;28;20036;-76
2022/03/21 11:24:49;;;;;;;;;;;;;;;;;;5107320;28;19947;-76
2022/03/21 11:27:14;;;;;;;;;;;;;;;;;;5116609;28;19967;-75
2022/03/21 11:29:45;;;;;;;;;;;;;;;;;;5116474;28;19955;-74
2022/03/21 11:32:21;;;;;;;;;;;;;;;;;;5116172;28;20371;-76
2022/03/21 11:34:52;;;;;;;;;;;;;;;;;;5116373;28;19923;-77
2022/03/21 11:37:25;;;;;;;;;;;;;;;;;;5106300;28;19963;-77
2022/03/21 11:40:11;;;;;;;;;;;;;;;;;;5094990;28;19916;-77
2022/03/21 11:42:36;;;;;;;;;;;;;;;;;;5095716;28;19966;-77
2022/03/21 11:45:24;;;;;;;;;;;;;;;;;;5095653;28;19948;-75
2022/03/21 11:47:50;;;;;;;;;;;;;;;;;;5098575;28;20048;-76
2022/03/21 11:50:26;;;;;;;;;;;;;;;;;;5093465;28;20376;-76
2022/03/21 11:53:05;;;;;;;;;;;;;;;;;;5095717;28;19927;-76
2022/03/21 11:55:35;;;;;;;;;;;;;;;;;;5102112;28;19916;-76
2022/03/21 11:58:20;;;;;;;;;;;;;;;;;;5100834;27;19926;-77
2022/03/21 12:01:18;;;;;;;;;;;;;;;;;;5102709;28;19912;-77
2022/03/21 12:03:43;;;;;;;;;;;;;;;;;;5070931;28;19920;-77
2022/03/21 12:06:30;;;;;;;;;;;;;;;;;;5094346;28;19919;-77
2022/03/21 12:09:13;;;;;;;;;;;;;;;;;;5095462;28;19916;-77
2022/03/21 12:11:38;;;;;;;;;;;;;;;;;;5095354;28;20045;-77
2022/03/21 12:14:40;;;;;;;;;;;;;;;;;;5095164;28;20397;-78
2022/03/21 12:17:05;;;;;;;;;;;;;;;;;;5095419;28;19916;-76
2022/03/21 12:19:58;;;;;;;;;;;;;;;;;;5102939;28;19981;-77
2022/03/21 12:22:29;;;;;;;;;;;;;;;;;;5094212;28;20026;-78
2022/03/21 12:25:04;;;;;;;;;;;;;;;;;;5102452;28;19935;-76
2022/03/21 12:27:33;;;;;;;;;;;;;;;;;;5101229;28;19960;-78
2022/03/21 12:30:17;;;;;;;;;;;;;;;;;;5107446;28;20469;-78
2022/03/21 12:32:49;;;;;;;;;;;;;;;;;;5104965;28;19952;-77
2022/03/21 12:35:44;;;;;;;;;;;;;;;;;;5099683;28;19924;-78
2022/03/21 12:38:14;;;;;;;;;;;;;;;;;;5080724;28;20380;-79
2022/03/21 12:40:52;;;;;;;;;;;;;;;;;;5101674;28;19963;-78
2022/03/21 12:43:21;;;;;;;;;;;;;;;;;;5106086;28;19923;-75
2022/03/21 12:45:49;;;;;;;;;;;;;;;;;;5114969;28;19916;-77
2022/03/21 12:48:17;;;;;;;;;;;;;;;;;;5114974;28;19915;-77
2022/03/21 12:50:45;;;;;;;;;;;;;;;;;;5113631;28;19994;-78
2022/03/21 12:53:12;;;;;;;;;;;;;;;;;;5114768;28;19919;-76
2022/03/21 12:55:38;;;;;;;;;;;;;;;;;;5114554;28;19916;-78
2022/03/21 12:58:06;;;;;;;;;;;;;;;;;;5114833;28;19989;-77
2022/03/21 13:00:37;;;;;;;;;;;;;;;;;;5113362;28;19941;-77
2022/03/21 13:03:08;;;;;;;;;;;;;;;;;;5114623;28;19967;-77
2022/03/21 13:11:24;;;;;;;;;;;;;;;;;;5114397;28;19939;-77
2022/03/21 13:13:53;;;;;;;;;;;;;;;;;;5112877;28;19915;-78
2022/03/21 13:16:22;;;;;;;;;;;;;;;;;;5101509;28;19920;-77
2022/03/21 13:18:50;;;;;;;;;;;;;;;;;;5094180;28;19912;-76
2022/03/21 13:21:17;;;;;;;;;;;;;;;;;;5095258;28;19920;-77
2022/03/21 13:23:43;;;;;;;;;;;;;;;;;;5096869;28;19919;-78
2022/03/21 13:26:10;;;;;;;;;;;;;;;;;;5100811;28;19956;-78
2022/03/21 13:28:36;;;;;;;;;;;;;;;;;;5100981;28;20382;-77
2022/03/21 13:31:03;;;;;;;;;;;;;;;;;;5103036;28;20010;-76
2022/03/21 13:33:30;;;;;;;;;;;;;;;;;;5102779;28;19923;-77
2022/03/21 13:36:05;;;;;;;;;;;;;;;;;;5102735;28;19920;-77
2022/03/21 13:38:32;;;;;;;;;;;;;;;;;;5101349;28;19979;-76
2022/03/21 13:40:58;;;;;;;;;;;;;;;;;;5105281;28;19920;-76
2022/03/21 13:43:28;;;;;;;;;;;;;;;;;;5108635;28;20386;-75
2022/03/21 13:46:01;;;;;;;;;;;;;;;;;;5102359;28;20281;-77
2022/03/21 13:48:33;;;;;;;;;;;;;;;;;;5093504;28;19916;-76
2022/03/21 13:51:07;;;;;;;;;;;;;;;;;;5093220;28;20569;-76
2022/03/21 13:53:33;;;;;;;;;;;;;;;;;;5113017;28;19923;-76
2022/03/21 13:55:58;;;;;;;;;;;;;;;;;;5112607;28;19938;-76
2022/03/21 13:58:28;;;;;;;;;;;;;;;;;;5104962;28;19927;-76
2022/03/21 14:00:54;;;;;;;;;;;;;;;;;;5112941;28;19920;-77
2022/03/21 14:03:41;;;;;;;;;;;;;;;;;;5113459;28;19916;-78
2022/03/21 14:06:07;;;;;;;;;;;;;;;;;;5093069;28;19951;-76
2022/03/21 14:08:33;;;;;;;;;;;;;;;;;;5099956;28;19969;-76
2022/03/21 14:11:05;;;;;;;;;;;;;;;;;;5101636;28;19985;-76
2022/03/21 14:13:40;;;;;;;;;;;;;;;;;;5093016;28;20288;-77
2022/03/21 14:16:06;;;;;;;;;;;;;;;;;;5093020;28;19920;-77
2022/03/21 14:18:33;;;;;;;;;;;;;;;;;;5112157;28;19973;-79
2022/03/21 14:21:02;;;;;;;;;;;;;;;;;;5113637;28;20002;-78
2022/03/21 14:23:32;;;;;;;;;;;;;;;;;;5112098;28;19955;-76
2022/03/21 14:28:42;;;;;;;;;;;;;;;;;;5110497;28;20401;-75
2022/03/21 14:31:09;;;;;;;;;;;;;;;;;;5104024;28;20078;-75
2022/03/21 14:33:35;;;;;;;;;;;;;;;;;;5103952;28;19922;-76
2022/03/21 14:36:01;;;;;;;;;;;;;;;;;;5115048;28;19971;-76
2022/03/21 14:38:26;;;;;;;;;;;;;;;;;;5109709;27;20478;-76
2022/03/21 14:40:52;;;;;;;;;;;;;;;;;;5104139;28;19959;-76
2022/03/21 14:43:18;;;;;;;;;;;;;;;;;;5105004;28;19923;-75
2022/03/21 14:45:44;;;;;;;;;;;;;;;;;;5100155;28;19928;-76
2022/03/21 14:48:10;;;;;;;;;;;;;;;;;;5101872;28;21549;-77
2022/03/21 14:50:35;;;;;;;;;;;;;;;;;;5100611;28;19924;-76
2022/03/21 14:53:03;;;;;;;;;;;;;;;;;;5102781;28;19924;-76
2022/03/21 14:55:28;;;;;;;;;;;;;;;;;;5101762;28;19924;-76
2022/03/21 14:57:54;;;;;;;;;;;;;;;;;;5103169;28;19935;-75
2022/03/21 15:00:19;;;;;;;;;;;;;;;;;;5103772;28;19920;-75
2022/03/21 15:02:48;;;;;;;;;;;;;;;;;;5137378;27;20364;-75
2022/03/21 15:05:14;;;;;;;;;;;;;;;;;;5100415;28;19963;-76
2022/03/21 15:07:40;;;;;;;;;;;;;;;;;;5103593;28;20275;-76
2022/03/21 15:10:21;;;;;;;;;;;;;;;;;;5109462;28;19916;-77
2022/03/21 15:12:47;;;;;;;;;;;;;;;;;;5104769;28;19920;-76
2022/03/21 15:15:12;;;;;;;;;;;;;;;;;;5133363;27;19965;-76
2022/03/21 15:17:38;;;;;;;;;;;;;;;;;;5106827;28;19926;-75
2022/03/21 15:20:07;;;;;;;;;;;;;;;;;;5100604;27;19920;-76
2022/03/21 15:22:34;;;;;;;;;;;;;;;;;;5097873;28;19927;-77
2022/03/21 15:24:59;;;;;;;;;;;;;;;;;;5103116;27;20015;-77
2022/03/21 15:27:25;;;;;;;;;;;;;;;;;;5116524;28;20006;-75
2022/03/21 15:29:50;;;;;;;;;;;;;;;;;;5115262;28;19999;-76
2022/03/21 15:32:16;;;;;;;;;;;;;;;;;;5115979;28;19920;-76
2022/03/21 15:34:41;;;;;;;;;;;;;;;;;;5116044;28;20383;-75
2022/03/21 15:42:34;;;;;;;;;;;;;;;;;;5116558;28;20420;-75
2022/03/21 15:45:00;;;;;;;;;;;;;;;;;;5115966;28;19924;-77
2022/03/21 15:47:28;;;;;;;;;;;;;;;;;;5114678;28;19916;-76
2022/03/21 15:49:54;;;;;;;;;;;;;;;;;;5110810;27;19923;-75
2022/03/21 15:52:19;;;;;;;;;;;;;;;;;;5103746;28;19970;-76
2022/03/21 15:54:45;;;;;;;;;;;;;;;;;;5102354;28;19963;-75
2022/03/21 15:57:10;;;;;;;;;;;;;;;;;;5103630;28;19967;-76
2022/03/21 15:59:36;;;;;;;;;;;;;;;;;;5101839;28;20291;-76
2022/03/21 16:02:02;;;;;;;;;;;;;;;;;;5102797;28;19924;-77
2022/03/21 16:04:28;;;;;;;;;;;;;;;;;;5107065;28;20412;-75
2022/03/21 16:06:53;;;;;;;;;;;;;;;;;;5099166;28;19975;-77
2022/03/21 16:09:18;;;;;;;;;;;;;;;;;;5097674;28;20398;-75
2022/03/21 16:11:44;;;;;;;;;;;;;;;;;;5102399;28;20295;-75
2022/03/21 16:14:10;;;;;;;;;;;;;;;;;;5102361;28;19974;-75
2022/03/21 16:16:36;;;;;;;;;;;;;;;;;;5100270;28;20294;-75
2022/03/21 16:19:01;;;;;;;;;;;;;;;;;;5105469;28;20056;-76
2022/03/21 16:21:27;;;;;;;;;;;;;;;;;;5103194;28;20064;-75
2022/03/21 16:23:53;;;;;;;;;;;;;;;;;;5111145;28;20043;-76
2022/03/21 16:26:18;;;;;;;;;;;;;;;;;;5139233;27;20295;-75
2022/03/21 16:28:43;;;;;;;;;;;;;;;;;;5102150;28;19920;-76
2022/03/21 16:31:13;;;;;;;;;;;;;;;;;;5103886;28;19931;-76
2022/03/21 16:33:39;;;;;;;;;;;;;;;;;;5098835;28;19920;-75
2022/03/21 16:36:05;;;;;;;;;;;;;;;;;;5098817;27;19939;-76
2022/03/21 16:38:30;;;;;;;;;;;;;;;;;;5098142;28;19947;-75
2022/03/21 16:40:59;;;;;;;;;;;;;;;;;;5097373;28;20379;-77
2022/03/21 16:43:26;;;;;;;;;;;;;;;;;;5101746;28;19920;-75
2022/03/21 16:45:53;;;;;;;;;;;;;;;;;;5099420;28;19931;-75
2022/03/21 16:48:18;;;;;;;;;;;;;;;;;;5101868;28;19920;-75
2022/03/21 16:50:45;;;;;;;;;;;;;;;;;;5103022;28;19939;-75
2022/03/21 16:53:11;;;;;;;;;;;;;;;;;;5114052;28;19998;-76
2022/03/21 16:55:36;;;;;;;;;;;;;;;;;;5114526;28;20332;-77
2022/03/21 16:58:02;;;;;;;;;;;;;;;;;;5112053;28;20387;-76
2022/03/21 17:00:28;;;;;;;;;;;;;;;;;;5107453;28;19916;-76
2022/03/21 17:02:53;;;;;;;;;;;;;;;;;;5113953;28;19962;-75
2022/03/21 17:05:19;;;;;;;;;;;;;;;;;;5114511;28;19938;-77
2022/03/21 17:07:45;;;;;;;;;;;;;;;;;;5114446;28;19923;-76
2022/03/21 17:10:12;;;;;;;;;;;;;;;;;;5114256;28;19916;-76
2022/03/21 17:12:38;;;;;;;;;;;;;;;;;;5114154;27;19927;-76
2022/03/21 17:15:04;;;;;;;;;;;;;;;;;;5114197;28;19920;-76
2022/03/21 17:17:29;;;;;;;;;;;;;;;;;;5113182;28;20403;-76
2022/03/21 17:25:24;;;;;;;;;;;;;;;;;;5101972;28;19930;-77
2022/03/21 17:27:50;;;;;;;;;;;;;;;;;;5103288;28;20406;-77